Calder, Idaho
Current Conditions -  °F | °C
As of 10:53 AM on Sunday 23 Nov 2014 (Local Time) from KMLP Reporting Station
Light Snow Light Snow  
Wind Chill: 19°   Ceiling: 300
Heat Index: 27°   Visibility: 0.25mi
Dew Point: 24°   Wind: 7mph
Humidity: 89%   Direction: NA
Pressure: 29.98"   Gusts: NA
Location:  47.28°N, 116.19°W
Report Text: KMLP 231853Z AUTO VRB06KT 1/4SM -SN FZFG VV003 M03/M04 A2998 RMK AO2 SLP190 P0000 T10281044
Loading
Personal Weather Stations






























Interactive Weather Map New forecast layout! Learn more

10-Day Weather Forecast

Advertisements
Track Severe Weather on mobile